Big Bear Station Historical Data
Daily Summary for January 25, 2019 Units:  English    Metric   Both
Next Day »
Daily Weekly Monthly Yearly Custom
  High: Low: Average:
Temperature: 51.1 °F 17.6 °F 33 °F
Dew Point: 22.2 °F 3.2 °F 14.4 °F
Humidity: 89% 17% 53%
Wind Speed: 9.4mph 0.0mph 2.1mph
Wind Gust: -999.0mph - -
Wind- - WSW
Pressure: 23.64 in 23.57 in -
Precipitation: 0.00 in    
Historical Graphs
 
 
Tabular Data for January 25, 2019
Time Temperature Dew Point Pressure Wind Wind Speed Wind Gust Humidity Rainfall Rate (Hourly)
00:06 21.9 °F 16.4 °F 23.63 in Calm   -999.0 mph 79% 0.00 in
00:22 21.4 °F 16.2 °F 23.62 in Calm   -999.0 mph 80% 0.00 in
00:37 21.7 °F 16.8 °F 23.63 in Calm   -999.0 mph 81% 0.00 in
00:52 21.2 °F 13.9 °F 23.62 in Calm   -999.0 mph 73% 0.00 in
01:07 21.2 °F 15.1 °F 23.62 in Calm   -999.0 mph 77% 0.00 in
01:23 21.0 °F 15.8 °F 23.62 in Calm   -999.0 mph 80% 0.00 in
01:38 20.8 °F 17.0 °F 23.63 in Calm   -999.0 mph 85% 0.00 in
01:53 20.8 °F 16.7 °F 23.63 in Calm   -999.0 mph 84% 0.00 in
02:08 20.1 °F 15.8 °F 23.63 in Calm   -999.0 mph 83% 0.00 in
02:23 20.5 °F 15.3 °F 23.63 in Calm   -999.0 mph 80% 0.00 in
02:39 21.0 °F 14.0 °F 23.63 in Calm   -999.0 mph 74% 0.00 in
02:54 21.0 °F 14.9 °F 23.62 in Calm   -999.0 mph 77% 0.00 in
03:09 20.8 °F 13.5 °F 23.62 in Calm   -999.0 mph 73% 0.00 in
03:24 20.5 °F 13.2 °F 23.62 in Calm   -999.0 mph 73% 0.00 in
03:39 20.3 °F 14.8 °F 23.61 in Calm   -999.0 mph 79% 0.00 in
03:55 19.9 °F 14.1 °F 23.61 in Calm   -999.0 mph 78% 0.00 in
04:10 19.4 °F 13.4 °F 23.61 in Calm   -999.0 mph 77% 0.00 in
04:25 19.2 °F 14.6 °F 23.60 in Calm   -999.0 mph 82% 0.00 in
04:40 19.2 °F 14.9 °F 23.61 in Calm   -999.0 mph 83% 0.00 in
04:55 18.9 °F 15.4 °F 23.61 in Calm   -999.0 mph 86% 0.00 in
05:11 18.7 °F 15.5 °F 23.61 in Calm   -999.0 mph 87% 0.00 in
05:26 18.5 °F 15.3 °F 23.61 in Calm   -999.0 mph 87% 0.00 in
05:41 18.3 °F 15.1 °F 23.60 in Calm   -999.0 mph 87% 0.00 in
05:56 18.5 °F 15.8 °F 23.60 in Calm   -999.0 mph 89% 0.00 in
06:11 18.5 °F 15.3 °F 23.60 in Calm   -999.0 mph 87% 0.00 in
06:27 18.3 °F 14.8 °F 23.61 in Calm   -999.0 mph 86% 0.00 in
06:42 17.6 °F 13.3 °F 23.61 in Calm   -999.0 mph 83% 0.00 in
06:57 17.6 °F 13.0 °F 23.61 in Calm   -999.0 mph 82% 0.00 in
07:12 17.8 °F 14.3 °F 23.61 in Calm   -999.0 mph 86% 0.00 in
07:27 17.8 °F 14.1 °F 23.61 in Calm   -999.0 mph 85% 0.00 in
07:43 18.1 °F 14.9 °F 23.61 in Calm   -999.0 mph 87% 0.00 in
07:58 18.0 °F 14.5 °F 23.61 in Calm   -999.0 mph 86% 0.00 in
08:13 19.2 °F 15.4 °F 23.61 in Calm   -999.0 mph 85% 0.00 in
08:28 21.7 °F 15.3 °F 23.62 in Calm   -999.0 mph 76% 0.00 in
08:44 24.6 °F 17.8 °F 23.62 in Calm   -999.0 mph 75% 0.00 in
08:59 23.5 °F 18.2 °F 23.62 in Calm   -999.0 mph 80% 0.00 in
09:14 25.9 °F 19.1 °F 23.63 in Calm   -999.0 mph 75% 0.00 in
09:29 26.1 °F 18.9 °F 23.63 in Calm   -999.0 mph 74% 0.00 in
09:44 27.5 °F 20.0 °F 23.63 in Calm   -999.0 mph 73% 0.00 in
10:00 31.5 °F 21.1 °F 23.64 in Calm   -999.0 mph 65% 0.00 in
10:15 33.8 °F 22.2 °F 23.64 in Calm   -999.0 mph 62% 0.00 in
10:30 35.1 °F 21.4 °F 23.63 in Calm   -999.0 mph 57% 0.00 in
10:45 39.6 °F 18.9 °F 23.63 in Calm   -999.0 mph 43% 0.00 in
11:00 41.4 °F 16.4 °F 23.63 in Calm   -999.0 mph 36% 0.00 in
11:16 44.6 °F 11.8 °F 23.62 in Calm   -999.0 mph 26% 0.00 in
11:31 48.9 °F 9.5 °F 23.61 in Calm   -999.0 mph 20% 0.00 in
11:46 48.7 °F 10.5 °F 23.61 in Calm   -999.0 mph 21% 0.00 in
12:01 50.2 °F 11.7 °F 23.61 in NW 2.7 mph -999.0 mph 21% 0.00 in
12:16 50.2 °F 16.6 °F 23.60 in NNW 2.2 mph -999.0 mph 26% 0.00 in
12:32 51.1 °F 11.4 °F 23.60 in NW 3.2 mph -999.0 mph 20% 0.00 in
12:47 49.6 °F 17.8 °F 23.59 in NNW 2.7 mph -999.0 mph 28% 0.00 in
13:02 50.4 °F 18.5 °F 23.59 in NNW 3.7 mph -999.0 mph 28% 0.00 in
13:18 48.6 °F 19.3 °F 23.59 in WNW 3.7 mph -999.0 mph 31% 0.00 in
13:33 47.3 °F 18.9 °F 23.59 in NW 2.7 mph -999.0 mph 32% 0.00 in
13:49 47.7 °F 18.5 °F 23.59 in NW 4.2 mph -999.0 mph 31% 0.00 in
14:04 48.0 °F 16.4 °F 23.59 in Calm   -999.0 mph 28% 0.00 in
14:19 48.0 °F 16.4 °F 23.59 in Calm   -999.0 mph 28% 0.00 in
14:34 47.1 °F 18.0 °F 23.59 in NNW 4.2 mph -999.0 mph 31% 0.00 in
14:49 46.2 °F 12.3 °F 23.59 in NNW 3.7 mph -999.0 mph 25% 0.00 in
15:05 45.9 °F 5.9 °F 23.58 in North 3.2 mph -999.0 mph 19% 0.00 in
15:20 45.5 °F 5.6 °F 23.59 in Calm   -999.0 mph 19% 0.00 in
15:35 45.5 °F 4.4 °F 23.59 in NW 2.7 mph -999.0 mph 18% 0.00 in
15:50 45.5 °F 3.2 °F 23.59 in NNE 4.7 mph -999.0 mph 17% 0.00 in
16:06 44.4 °F 8.9 °F 23.59 in NNE 1.7 mph -999.0 mph 23% 0.00 in
16:21 44.2 °F 4.5 °F 23.59 in NNW 4.2 mph -999.0 mph 19% 0.00 in
16:36 43.2 °F 7.9 °F 23.58 in NW 3.7 mph -999.0 mph 23% 0.00 in
16:51 40.5 °F 13.6 °F 23.58 in Calm   -999.0 mph 33% 0.00 in
17:06 39.2 °F 13.8 °F 23.58 in Calm   -999.0 mph 35% 0.00 in
17:22 37.9 °F 10.6 °F 23.58 in Calm   -999.0 mph 32% 0.00 in
17:37 37.2 °F 10.0 °F 23.58 in SW 1.1 mph -999.0 mph 32% 0.00 in
17:52 36.9 °F 7.6 °F 23.57 in West 3.2 mph -999.0 mph 29% 0.00 in
18:07 37.4 °F 8.0 °F 23.58 in South 4.7 mph -999.0 mph 29% 0.00 in
18:23 38.5 °F 10.5 °F 23.58 in NW 4.7 mph -999.0 mph 31% 0.00 in
18:38 39.2 °F 12.5 °F 23.59 in NNW 7.3 mph -999.0 mph 33% 0.00 in
18:53 40.5 °F 13.6 °F 23.58 in NNW 8.9 mph -999.0 mph 33% 0.00 in
19:09 41.0 °F 11.9 °F 23.58 in NW 7.8 mph -999.0 mph 30% 0.00 in
19:24 40.3 °F 13.4 °F 23.58 in NNW 7.8 mph -999.0 mph 33% 0.00 in
19:39 40.3 °F 13.4 °F 23.59 in NW 9.4 mph -999.0 mph 33% 0.00 in
19:55 39.9 °F 13.1 °F 23.60 in NNE 6.8 mph -999.0 mph 33% 0.00 in
20:10 39.0 °F 14.3 °F 23.61 in West 2.7 mph -999.0 mph 36% 0.00 in
20:25 38.5 °F 12.5 °F 23.60 in North 4.7 mph -999.0 mph 34% 0.00 in
20:40 38.3 °F 13.0 °F 23.61 in NNW 4.7 mph -999.0 mph 35% 0.00 in
20:55 37.9 °F 13.3 °F 23.61 in West 7.3 mph -999.0 mph 36% 0.00 in
21:11 37.2 °F 13.9 °F 23.62 in NNE 5.8 mph -999.0 mph 38% 0.00 in
21:26 37.2 °F 15.1 °F 23.62 in ENE 4.2 mph -999.0 mph 40% 0.00 in
21:41 37.6 °F 15.4 °F 23.62 in NNE 5.3 mph -999.0 mph 40% 0.00 in
21:56 37.9 °F 15.7 °F 23.63 in WNW 4.2 mph -999.0 mph 40% 0.00 in
22:12 37.9 °F 15.7 °F 23.63 in NE 3.7 mph -999.0 mph 40% 0.00 in
22:27 38.1 °F 15.3 °F 23.63 in West 4.7 mph -999.0 mph 39% 0.00 in
22:42 37.9 °F 16.8 °F 23.62 in SE 5.8 mph -999.0 mph 42% 0.00 in
22:57 38.3 °F 16.1 °F 23.62 in NNW 9.4 mph -999.0 mph 40% 0.00 in
23:12 37.9 °F 16.3 °F 23.62 in West 6.3 mph -999.0 mph 41% 0.00 in
23:28 38.1 °F 16.5 °F 23.63 in North 7.3 mph -999.0 mph 41% 0.00 in
23:43 37.8 °F 16.2 °F 23.63 in South 4.2 mph -999.0 mph 41% 0.00 in
23:58 37.9 °F 16.3 °F 23.64 in SE 2.7 mph -999.0 mph 41% 0.00 in
Big Bear CA Weather